sensor_id;sensor_type;location;lat;lon;timestamp;P1;durP1;ratioP1;P2;durP2;ratioP2
13252;SDS011;6693;54.370;10.132;2023-08-20T00:00:29;22.60;;;11.00;;
13252;SDS011;6693;54.370;10.132;2023-08-20T00:01:30;23.65;;;11.23;;
13252;SDS011;6693;54.370;10.132;2023-08-20T00:02:33;25.83;;;10.30;;
13252;SDS011;6693;54.370;10.132;2023-08-20T00:03:36;24.42;;;10.77;;
13252;SDS011;6693;54.370;10.132;2023-08-20T00:04:40;26.08;;;11.10;;
13252;SDS011;6693;54.370;10.132;2023-08-20T00:05:46;28.10;;;11.95;;
13252;SDS011;6693;54.370;10.132;2023-08-20T00:06:49;27.40;;;11.63;;
13252;SDS011;6693;54.370;10.132;2023-08-20T00:07:50;27.92;;;11.70;;
13252;SDS011;6693;54.370;10.132;2023-08-20T00:08:53;26.58;;;10.18;;
13252;SDS011;6693;54.370;10.132;2023-08-20T00:09:54;28.30;;;11.02;;
13252;SDS011;6693;54.370;10.132;2023-08-20T00:10:57;26.73;;;12.43;;
13252;SDS011;6693;54.370;10.132;2023-08-20T00:11:58;25.52;;;10.45;;
13252;SDS011;6693;54.370;10.132;2023-08-20T00:13:02;25.85;;;10.48;;
13252;SDS011;6693;54.370;10.132;2023-08-20T00:14:04;29.15;;;10.82;;
13252;SDS011;6693;54.370;10.132;2023-08-20T00:15:07;26.00;;;10.10;;
13252;SDS011;6693;54.370;10.132;2023-08-20T00:16:09;26.50;;;10.50;;
13252;SDS011;6693;54.370;10.132;2023-08-20T00:17:13;22.50;;;10.55;;
13252;SDS011;6693;54.370;10.132;2023-08-20T00:18:14;30.05;;;11.32;;
13252;SDS011;6693;54.370;10.132;2023-08-20T00:19:18;23.85;;;10.93;;
13252;SDS011;6693;54.370;10.132;2023-08-20T00:20:19;23.10;;;11.55;;
13252;SDS011;6693;54.370;10.132;2023-08-20T00:21:23;26.52;;;10.63;;
13252;SDS011;6693;54.370;10.132;2023-08-20T00:22:27;25.70;;;10.38;;
13252;SDS011;6693;54.370;10.132;2023-08-20T00:23:28;24.42;;;10.70;;
13252;SDS011;6693;54.370;10.132;2023-08-20T00:24:32;26.00;;;10.32;;
13252;SDS011;6693;54.370;10.132;2023-08-20T00:25:33;22.92;;;10.63;;
13252;SDS011;6693;54.370;10.132;2023-08-20T00:26:37;25.30;;;10.25;;
13252;SDS011;6693;54.370;10.132;2023-08-20T00:27:38;26.65;;;10.50;;
13252;SDS011;6693;54.370;10.132;2023-08-20T00:28:42;26.02;;;9.45;;
13252;SDS011;6693;54.370;10.132;2023-08-20T00:29:42;23.35;;;9.23;;
13252;SDS011;6693;54.370;10.132;2023-08-20T00:30:45;29.48;;;9.98;;
13252;SDS011;6693;54.370;10.132;2023-08-20T00:31:46;23.00;;;9.77;;
13252;SDS011;6693;54.370;10.132;2023-08-20T00:32:49;25.88;;;9.25;;
13252;SDS011;6693;54.370;10.132;2023-08-20T00:33:50;24.85;;;10.02;;
13252;SDS011;6693;54.370;10.132;2023-08-20T00:34:53;22.38;;;9.55;;
13252;SDS011;6693;54.370;10.132;2023-08-20T00:35:54;24.00;;;9.90;;
13252;SDS011;6693;54.370;10.132;2023-08-20T00:37:00;27.48;;;10.38;;
13252;SDS011;6693;54.370;10.132;2023-08-20T00:38:00;24.30;;;10.80;;
13252;SDS011;6693;54.370;10.132;2023-08-20T00:39:03;25.48;;;10.60;;
13252;SDS011;6693;54.370;10.132;2023-08-20T00:40:05;22.40;;;9.75;;
13252;SDS011;6693;54.370;10.132;2023-08-20T00:41:09;24.20;;;9.65;;
13252;SDS011;6693;54.370;10.132;2023-08-20T00:42:10;27.00;;;10.75;;
13252;SDS011;6693;54.370;10.132;2023-08-20T00:43:11;27.20;;;10.50;;
13252;SDS011;6693;54.370;10.132;2023-08-20T00:44:14;22.42;;;10.38;;
13252;SDS011;6693;54.370;10.132;2023-08-20T00:45:15;24.17;;;9.98;;
13252;SDS011;6693;54.370;10.132;2023-08-20T00:46:16;26.83;;;10.80;;
13252;SDS011;6693;54.370;10.132;2023-08-20T00:47:19;30.23;;;12.27;;
13252;SDS011;6693;54.370;10.132;2023-08-20T00:48:20;28.23;;;11.88;;
13252;SDS011;6693;54.370;10.132;2023-08-20T00:49:24;25.52;;;10.65;;
13252;SDS011;6693;54.370;10.132;2023-08-20T00:50:24;29.02;;;12.35;;
13252;SDS011;6693;54.370;10.132;2023-08-20T00:51:27;30.30;;;11.77;;
13252;SDS011;6693;54.370;10.132;2023-08-20T00:52:31;29.38;;;11.27;;
13252;SDS011;6693;54.370;10.132;2023-08-20T00:53:32;25.35;;;11.02;;
13252;SDS011;6693;54.370;10.132;2023-08-20T00:54:35;24.17;;;10.10;;
13252;SDS011;6693;54.370;10.132;2023-08-20T00:55:36;25.10;;;11.60;;
13252;SDS011;6693;54.370;10.132;2023-08-20T00:56:39;25.77;;;10.45;;
13252;SDS011;6693;54.370;10.132;2023-08-20T00:57:40;27.30;;;10.32;;
13252;SDS011;6693;54.370;10.132;2023-08-20T00:58:41;28.38;;;10.35;;
13252;SDS011;6693;54.370;10.132;2023-08-20T00:59:44;24.23;;;11.00;;
13252;SDS011;6693;54.370;10.132;2023-08-20T01:00:47;28.38;;;10.43;;
13252;SDS011;6693;54.370;10.132;2023-08-20T01:01:51;23.65;;;10.38;;
13252;SDS011;6693;54.370;10.132;2023-08-20T01:02:51;30.77;;;10.27;;
13252;SDS011;6693;54.370;10.132;2023-08-20T01:03:54;28.90;;;11.40;;
13252;SDS011;6693;54.370;10.132;2023-08-20T01:04:55;25.15;;;9.73;;
13252;SDS011;6693;54.370;10.132;2023-08-20T01:06:01;24.30;;;10.98;;
13252;SDS011;6693;54.370;10.132;2023-08-20T01:07:10;24.83;;;9.80;;
13252;SDS011;6693;54.370;10.132;2023-08-20T01:08:23;33.58;;;11.13;;
13252;SDS011;6693;54.370;10.132;2023-08-20T01:09:28;23.00;;;9.40;;
13252;SDS011;6693;54.370;10.132;2023-08-20T01:10:39;29.25;;;10.65;;
13252;SDS011;6693;54.370;10.132;2023-08-20T01:11:46;24.85;;;10.95;;
13252;SDS011;6693;54.370;10.132;2023-08-20T01:12:53;25.58;;;9.98;;
13252;SDS011;6693;54.370;10.132;2023-08-20T01:13:54;24.65;;;10.82;;
13252;SDS011;6693;54.370;10.132;2023-08-20T01:14:57;26.52;;;11.05;;
13252;SDS011;6693;54.370;10.132;2023-08-20T01:15:58;27.35;;;11.02;;
13252;SDS011;6693;54.370;10.132;2023-08-20T01:17:01;27.63;;;11.07;;
13252;SDS011;6693;54.370;10.132;2023-08-20T01:18:02;27.52;;;11.07;;
13252;SDS011;6693;54.370;10.132;2023-08-20T01:19:06;23.65;;;10.73;;
13252;SDS011;6693;54.370;10.132;2023-08-20T01:20:08;25.98;;;10.60;;
13252;SDS011;6693;54.370;10.132;2023-08-20T01:21:16;28.75;;;11.63;;
13252;SDS011;6693;54.370;10.132;2023-08-20T01:22:29;24.42;;;11.20;;
13252;SDS011;6693;54.370;10.132;2023-08-20T01:25:11;28.73;;;11.23;;
13252;SDS011;6693;54.370;10.132;2023-08-20T01:26:21;30.55;;;12.80;;
13252;SDS011;6693;54.370;10.132;2023-08-20T01:27:35;26.67;;;10.65;;
13252;SDS011;6693;54.370;10.132;2023-08-20T01:28:47;29.73;;;12.40;;
13252;SDS011;6693;54.370;10.132;2023-08-20T01:29:48;29.38;;;11.80;;
13252;SDS011;6693;54.370;10.132;2023-08-20T01:30:52;26.52;;;11.48;;
13252;SDS011;6693;54.370;10.132;2023-08-20T01:31:53;27.30;;;10.73;;
13252;SDS011;6693;54.370;10.132;2023-08-20T01:32:57;33.47;;;13.10;;
13252;SDS011;6693;54.370;10.132;2023-08-20T01:33:58;30.60;;;12.18;;
13252;SDS011;6693;54.370;10.132;2023-08-20T01:35:02;28.20;;;13.20;;
13252;SDS011;6693;54.370;10.132;2023-08-20T01:36:03;24.75;;;11.38;;
13252;SDS011;6693;54.370;10.132;2023-08-20T01:37:10;27.42;;;11.13;;
13252;SDS011;6693;54.370;10.132;2023-08-20T01:38:11;30.05;;;12.13;;
13252;SDS011;6693;54.370;10.132;2023-08-20T01:39:14;28.08;;;12.38;;
13252;SDS011;6693;54.370;10.132;2023-08-20T01:40:15;28.48;;;12.90;;
13252;SDS011;6693;54.370;10.132;2023-08-20T01:41:18;34.78;;;12.73;;
13252;SDS011;6693;54.370;10.132;2023-08-20T01:42:18;29.48;;;13.13;;
13252;SDS011;6693;54.370;10.132;2023-08-20T01:43:22;32.15;;;12.27;;
13252;SDS011;6693;54.370;10.132;2023-08-20T01:44:25;30.85;;;13.25;;
13252;SDS011;6693;54.370;10.132;2023-08-20T01:45:28;29.23;;;12.60;;
13252;SDS011;6693;54.370;10.132;2023-08-20T01:46:29;33.45;;;13.15;;
13252;SDS011;6693;54.370;10.132;2023-08-20T01:47:32;37.45;;;13.93;;
13252;SDS011;6693;54.370;10.132;2023-08-20T01:48:33;31.90;;;13.35;;
13252;SDS011;6693;54.370;10.132;2023-08-20T01:49:34;31.85;;;13.15;;
13252;SDS011;6693;54.370;10.132;2023-08-20T01:50:37;30.55;;;12.30;;
13252;SDS011;6693;54.370;10.132;2023-08-20T01:52:42;28.92;;;10.30;;
13252;SDS011;6693;54.370;10.132;2023-08-20T01:53:42;29.48;;;11.43;;
13252;SDS011;6693;54.370;10.132;2023-08-20T01:54:46;34.42;;;12.75;;
13252;SDS011;6693;54.370;10.132;2023-08-20T01:55:48;32.42;;;12.43;;
13252;SDS011;6693;54.370;10.132;2023-08-20T01:56:51;33.50;;;12.02;;
13252;SDS011;6693;54.370;10.132;2023-08-20T01:57:51;28.10;;;11.93;;
13252;SDS011;6693;54.370;10.132;2023-08-20T01:58:55;32.67;;;11.95;;
13252;SDS011;6693;54.370;10.132;2023-08-20T01:59:58;34.03;;;12.40;;
13252;SDS011;6693;54.370;10.132;2023-08-20T02:01:01;30.63;;;11.40;;
13252;SDS011;6693;54.370;10.132;2023-08-20T02:02:02;32.72;;;11.10;;
13252;SDS011;6693;54.370;10.132;2023-08-20T02:03:06;34.53;;;12.20;;
13252;SDS011;6693;54.370;10.132;2023-08-20T02:04:06;36.60;;;12.70;;
13252;SDS011;6693;54.370;10.132;2023-08-20T02:05:09;38.67;;;11.80;;
13252;SDS011;6693;54.370;10.132;2023-08-20T02:06:10;37.95;;;13.02;;
13252;SDS011;6693;54.370;10.132;2023-08-20T02:07:14;39.72;;;13.43;;
13252;SDS011;6693;54.370;10.132;2023-08-20T02:08:14;33.80;;;11.70;;
13252;SDS011;6693;54.370;10.132;2023-08-20T02:09:17;36.28;;;11.57;;
13252;SDS011;6693;54.370;10.132;2023-08-20T02:10:19;40.17;;;12.07;;
13252;SDS011;6693;54.370;10.132;2023-08-20T02:11:23;35.30;;;12.20;;
13252;SDS011;6693;54.370;10.132;2023-08-20T02:12:24;33.03;;;10.63;;
13252;SDS011;6693;54.370;10.132;2023-08-20T02:13:28;40.33;;;14.00;;
13252;SDS011;6693;54.370;10.132;2023-08-20T02:14:28;38.10;;;13.35;;
13252;SDS011;6693;54.370;10.132;2023-08-20T02:15:37;41.58;;;13.52;;
13252;SDS011;6693;54.370;10.132;2023-08-20T02:16:38;42.38;;;13.18;;
13252;SDS011;6693;54.370;10.132;2023-08-20T02:17:41;47.35;;;13.05;;
13252;SDS011;6693;54.370;10.132;2023-08-20T02:18:41;48.00;;;14.13;;
13252;SDS011;6693;54.370;10.132;2023-08-20T02:19:45;41.60;;;15.10;;
13252;SDS011;6693;54.370;10.132;2023-08-20T02:20:45;50.88;;;13.88;;
13252;SDS011;6693;54.370;10.132;2023-08-20T02:21:46;48.28;;;14.13;;
13252;SDS011;6693;54.370;10.132;2023-08-20T02:22:49;45.55;;;13.57;;
13252;SDS011;6693;54.370;10.132;2023-08-20T02:23:49;47.25;;;14.00;;
13252;SDS011;6693;54.370;10.132;2023-08-20T02:24:53;42.58;;;14.48;;
13252;SDS011;6693;54.370;10.132;2023-08-20T02:25:53;31.67;;;12.27;;
13252;SDS011;6693;54.370;10.132;2023-08-20T02:26:58;37.85;;;14.02;;
13252;SDS011;6693;54.370;10.132;2023-08-20T02:27:58;34.88;;;11.63;;
13252;SDS011;6693;54.370;10.132;2023-08-20T02:29:01;49.10;;;14.23;;
13252;SDS011;6693;54.370;10.132;2023-08-20T02:30:03;42.15;;;14.60;;
13252;SDS011;6693;54.370;10.132;2023-08-20T02:31:09;46.40;;;13.82;;
13252;SDS011;6693;54.370;10.132;2023-08-20T02:32:10;37.42;;;13.68;;
13252;SDS011;6693;54.370;10.132;2023-08-20T02:33:13;42.75;;;14.30;;
13252;SDS011;6693;54.370;10.132;2023-08-20T02:34:14;40.00;;;14.25;;
13252;SDS011;6693;54.370;10.132;2023-08-20T02:35:17;39.92;;;13.45;;
13252;SDS011;6693;54.370;10.132;2023-08-20T02:36:18;38.35;;;13.07;;
13252;SDS011;6693;54.370;10.132;2023-08-20T02:37:21;34.88;;;13.15;;
13252;SDS011;6693;54.370;10.132;2023-08-20T02:38:22;37.63;;;13.60;;
13252;SDS011;6693;54.370;10.132;2023-08-20T02:39:25;42.13;;;13.32;;
13252;SDS011;6693;54.370;10.132;2023-08-20T02:40:26;46.13;;;14.18;;
13252;SDS011;6693;54.370;10.132;2023-08-20T02:41:29;42.65;;;13.25;;
13252;SDS011;6693;54.370;10.132;2023-08-20T02:42:29;38.15;;;13.98;;
13252;SDS011;6693;54.370;10.132;2023-08-20T02:43:33;38.22;;;12.65;;
13252;SDS011;6693;54.370;10.132;2023-08-20T02:44:33;37.55;;;12.57;;
13252;SDS011;6693;54.370;10.132;2023-08-20T02:45:40;37.53;;;13.15;;
13252;SDS011;6693;54.370;10.132;2023-08-20T02:46:44;36.95;;;13.25;;
13252;SDS011;6693;54.370;10.132;2023-08-20T02:47:48;42.40;;;13.20;;
13252;SDS011;6693;54.370;10.132;2023-08-20T02:48:48;38.03;;;12.45;;
13252;SDS011;6693;54.370;10.132;2023-08-20T02:49:51;36.92;;;12.05;;
13252;SDS011;6693;54.370;10.132;2023-08-20T02:50:52;42.05;;;12.57;;
13252;SDS011;6693;54.370;10.132;2023-08-20T02:51:56;36.65;;;12.23;;
13252;SDS011;6693;54.370;10.132;2023-08-20T02:52:56;35.10;;;11.50;;
13252;SDS011;6693;54.370;10.132;2023-08-20T02:53:59;31.25;;;11.50;;
13252;SDS011;6693;54.370;10.132;2023-08-20T02:55:00;34.35;;;12.18;;
13252;SDS011;6693;54.370;10.132;2023-08-20T02:56:04;32.47;;;12.60;;
13252;SDS011;6693;54.370;10.132;2023-08-20T02:57:05;35.42;;;13.32;;
13252;SDS011;6693;54.370;10.132;2023-08-20T02:58:06;31.58;;;11.98;;
13252;SDS011;6693;54.370;10.132;2023-08-20T02:59:10;32.63;;;12.40;;
13252;SDS011;6693;54.370;10.132;2023-08-20T03:00:11;33.13;;;11.82;;
13252;SDS011;6693;54.370;10.132;2023-08-20T03:01:19;33.60;;;11.15;;
13252;SDS011;6693;54.370;10.132;2023-08-20T03:02:23;32.03;;;11.43;;
13252;SDS011;6693;54.370;10.132;2023-08-20T03:03:26;31.05;;;11.18;;
13252;SDS011;6693;54.370;10.132;2023-08-20T03:04:27;33.45;;;12.45;;
13252;SDS011;6693;54.370;10.132;2023-08-20T03:05:31;32.92;;;12.48;;
13252;SDS011;6693;54.370;10.132;2023-08-20T03:06:31;30.05;;;11.55;;
13252;SDS011;6693;54.370;10.132;2023-08-20T03:07:34;33.85;;;11.10;;
13252;SDS011;6693;54.370;10.132;2023-08-20T03:08:35;34.90;;;12.70;;
13252;SDS011;6693;54.370;10.132;2023-08-20T03:09:36;30.65;;;11.38;;
13252;SDS011;6693;54.370;10.132;2023-08-20T03:10:39;30.38;;;12.35;;
13252;SDS011;6693;54.370;10.132;2023-08-20T03:11:39;29.50;;;10.95;;
13252;SDS011;6693;54.370;10.132;2023-08-20T03:12:43;35.42;;;11.50;;
13252;SDS011;6693;54.370;10.132;2023-08-20T03:13:44;32.78;;;11.70;;
13252;SDS011;6693;54.370;10.132;2023-08-20T03:14:45;29.75;;;10.95;;
13252;SDS011;6693;54.370;10.132;2023-08-20T03:15:48;34.03;;;11.05;;
13252;SDS011;6693;54.370;10.132;2023-08-20T03:16:49;32.40;;;12.00;;
13252;SDS011;6693;54.370;10.132;2023-08-20T03:17:54;35.42;;;12.05;;
13252;SDS011;6693;54.370;10.132;2023-08-20T03:18:55;35.45;;;12.10;;
13252;SDS011;6693;54.370;10.132;2023-08-20T03:19:59;31.75;;;11.20;;
13252;SDS011;6693;54.370;10.132;2023-08-20T03:21:00;27.75;;;11.00;;
13252;SDS011;6693;54.370;10.132;2023-08-20T03:22:03;25.92;;;10.25;;
13252;SDS011;6693;54.370;10.132;2023-08-20T03:23:04;27.58;;;9.90;;
13252;SDS011;6693;54.370;10.132;2023-08-20T03:24:08;26.45;;;10.00;;
13252;SDS011;6693;54.370;10.132;2023-08-20T03:25:09;32.65;;;11.55;;
13252;SDS011;6693;54.370;10.132;2023-08-20T03:26:12;26.90;;;10.15;;
13252;SDS011;6693;54.370;10.132;2023-08-20T03:27:13;26.13;;;10.82;;
13252;SDS011;6693;54.370;10.132;2023-08-20T03:28:17;26.25;;;10.75;;
13252;SDS011;6693;54.370;10.132;2023-08-20T03:29:18;25.40;;;10.00;;
13252;SDS011;6693;54.370;10.132;2023-08-20T03:30:21;31.13;;;11.20;;
13252;SDS011;6693;54.370;10.132;2023-08-20T03:31:22;25.98;;;10.18;;
13252;SDS011;6693;54.370;10.132;2023-08-20T03:32:25;28.77;;;10.98;;
13252;SDS011;6693;54.370;10.132;2023-08-20T03:33:29;28.52;;;10.93;;
13252;SDS011;6693;54.370;10.132;2023-08-20T03:34:29;27.33;;;10.30;;
13252;SDS011;6693;54.370;10.132;2023-08-20T03:35:32;28.27;;;10.95;;
13252;SDS011;6693;54.370;10.132;2023-08-20T03:36:33;23.65;;;9.73;;
13252;SDS011;6693;54.370;10.132;2023-08-20T03:37:36;26.38;;;10.52;;
13252;SDS011;6693;54.370;10.132;2023-08-20T03:38:37;29.70;;;11.45;;
13252;SDS011;6693;54.370;10.132;2023-08-20T03:39:40;28.02;;;11.10;;
13252;SDS011;6693;54.370;10.132;2023-08-20T03:40:41;28.55;;;11.15;;
13252;SDS011;6693;54.370;10.132;2023-08-20T03:41:45;24.88;;;10.43;;
13252;SDS011;6693;54.370;10.132;2023-08-20T03:42:45;28.10;;;10.60;;
13252;SDS011;6693;54.370;10.132;2023-08-20T03:43:49;27.38;;;10.10;;
13252;SDS011;6693;54.370;10.132;2023-08-20T03:44:49;29.80;;;11.38;;
13252;SDS011;6693;54.370;10.132;2023-08-20T03:45:53;26.30;;;10.32;;
13252;SDS011;6693;54.370;10.132;2023-08-20T03:46:53;25.08;;;11.43;;
13252;SDS011;6693;54.370;10.132;2023-08-20T03:47:57;30.05;;;10.95;;
13252;SDS011;6693;54.370;10.132;2023-08-20T03:49:00;25.80;;;10.30;;
13252;SDS011;6693;54.370;10.132;2023-08-20T03:50:03;26.27;;;11.30;;
13252;SDS011;6693;54.370;10.132;2023-08-20T03:51:04;29.10;;;11.88;;
13252;SDS011;6693;54.370;10.132;2023-08-20T03:52:08;27.45;;;11.85;;
13252;SDS011;6693;54.370;10.132;2023-08-20T03:53:08;28.45;;;11.63;;
13252;SDS011;6693;54.370;10.132;2023-08-20T03:54:11;31.55;;;11.77;;
13252;SDS011;6693;54.370;10.132;2023-08-20T03:55:12;33.95;;;11.50;;
13252;SDS011;6693;54.370;10.132;2023-08-20T03:56:13;30.58;;;11.68;;
13252;SDS011;6693;54.370;10.132;2023-08-20T03:57:16;31.98;;;13.25;;
13252;SDS011;6693;54.370;10.132;2023-08-20T03:58:17;30.98;;;12.05;;
13252;SDS011;6693;54.370;10.132;2023-08-20T03:59:20;34.47;;;13.30;;
13252;SDS011;6693;54.370;10.132;2023-08-20T04:00:21;32.22;;;12.93;;
13252;SDS011;6693;54.370;10.132;2023-08-20T04:01:24;30.70;;;12.02;;
13252;SDS011;6693;54.370;10.132;2023-08-20T04:02:25;35.63;;;12.13;;
13252;SDS011;6693;54.370;10.132;2023-08-20T04:03:28;33.03;;;12.63;;
13252;SDS011;6693;54.370;10.132;2023-08-20T04:04:31;26.50;;;11.02;;
13252;SDS011;6693;54.370;10.132;2023-08-20T04:06:37;28.35;;;11.73;;
13252;SDS011;6693;54.370;10.132;2023-08-20T04:07:40;28.83;;;11.57;;
13252;SDS011;6693;54.370;10.132;2023-08-20T04:08:41;31.15;;;12.20;;
13252;SDS011;6693;54.370;10.132;2023-08-20T04:09:45;35.60;;;11.43;;
13252;SDS011;6693;54.370;10.132;2023-08-20T04:10:45;33.38;;;11.80;;
13252;SDS011;6693;54.370;10.132;2023-08-20T04:11:48;33.15;;;12.57;;
13252;SDS011;6693;54.370;10.132;2023-08-20T04:12:49;30.92;;;12.25;;
13252;SDS011;6693;54.370;10.132;2023-08-20T04:13:52;29.08;;;11.95;;
13252;SDS011;6693;54.370;10.132;2023-08-20T04:14:53;28.75;;;12.63;;
13252;SDS011;6693;54.370;10.132;2023-08-20T04:15:56;29.13;;;11.25;;
13252;SDS011;6693;54.370;10.132;2023-08-20T04:16:57;32.03;;;11.63;;
13252;SDS011;6693;54.370;10.132;2023-08-20T04:18:00;27.00;;;10.70;;
13252;SDS011;6693;54.370;10.132;2023-08-20T04:19:01;31.02;;;11.85;;
13252;SDS011;6693;54.370;10.132;2023-08-20T04:20:07;26.98;;;12.25;;
13252;SDS011;6693;54.370;10.132;2023-08-20T04:21:09;27.35;;;11.30;;
13252;SDS011;6693;54.370;10.132;2023-08-20T04:22:12;27.42;;;10.82;;
13252;SDS011;6693;54.370;10.132;2023-08-20T04:23:13;28.98;;;11.15;;
13252;SDS011;6693;54.370;10.132;2023-08-20T04:24:16;32.75;;;12.32;;
13252;SDS011;6693;54.370;10.132;2023-08-20T04:25:17;27.85;;;12.07;;
13252;SDS011;6693;54.370;10.132;2023-08-20T04:26:20;29.33;;;11.98;;
13252;SDS011;6693;54.370;10.132;2023-08-20T04:27:21;29.38;;;11.73;;
13252;SDS011;6693;54.370;10.132;2023-08-20T04:28:24;28.00;;;11.13;;
13252;SDS011;6693;54.370;10.132;2023-08-20T04:29:24;26.60;;;11.00;;
13252;SDS011;6693;54.370;10.132;2023-08-20T04:30:28;28.17;;;11.43;;
13252;SDS011;6693;54.370;10.132;2023-08-20T04:31:28;26.15;;;10.70;;
13252;SDS011;6693;54.370;10.132;2023-08-20T04:32:31;30.48;;;11.10;;
13252;SDS011;6693;54.370;10.132;2023-08-20T04:33:32;28.02;;;11.68;;
13252;SDS011;6693;54.370;10.132;2023-08-20T04:34:35;28.58;;;11.52;;
13252;SDS011;6693;54.370;10.132;2023-08-20T04:35:38;27.92;;;11.57;;
13252;SDS011;6693;54.370;10.132;2023-08-20T04:36:41;25.50;;;11.77;;
13252;SDS011;6693;54.370;10.132;2023-08-20T04:37:42;25.63;;;12.35;;
13252;SDS011;6693;54.370;10.132;2023-08-20T04:38:45;23.17;;;11.30;;
13252;SDS011;6693;54.370;10.132;2023-08-20T04:39:46;27.33;;;11.20;;
13252;SDS011;6693;54.370;10.132;2023-08-20T04:40:47;24.33;;;10.95;;
13252;SDS011;6693;54.370;10.132;2023-08-20T04:41:50;30.35;;;11.65;;
13252;SDS011;6693;54.370;10.132;2023-08-20T04:42:50;27.23;;;11.43;;
13252;SDS011;6693;54.370;10.132;2023-08-20T04:43:51;27.42;;;11.32;;
13252;SDS011;6693;54.370;10.132;2023-08-20T04:44:54;27.85;;;10.48;;
13252;SDS011;6693;54.370;10.132;2023-08-20T04:45:55;30.60;;;11.55;;
13252;SDS011;6693;54.370;10.132;2023-08-20T04:46:59;23.52;;;10.57;;
13252;SDS011;6693;54.370;10.132;2023-08-20T04:48:00;29.10;;;11.13;;
13252;SDS011;6693;54.370;10.132;2023-08-20T04:49:03;22.48;;;10.15;;
13252;SDS011;6693;54.370;10.132;2023-08-20T04:50:04;21.83;;;9.98;;
13252;SDS011;6693;54.370;10.132;2023-08-20T04:51:12;22.50;;;10.30;;
13252;SDS011;6693;54.370;10.132;2023-08-20T04:52:12;27.05;;;10.70;;
13252;SDS011;6693;54.370;10.132;2023-08-20T04:53:15;26.13;;;10.82;;
13252;SDS011;6693;54.370;10.132;2023-08-20T04:54:16;26.35;;;11.20;;
13252;SDS011;6693;54.370;10.132;2023-08-20T04:55:19;27.63;;;10.65;;
13252;SDS011;6693;54.370;10.132;2023-08-20T04:56:20;24.90;;;10.02;;
13252;SDS011;6693;54.370;10.132;2023-08-20T04:57:23;22.38;;;9.73;;
13252;SDS011;6693;54.370;10.132;2023-08-20T04:58:23;24.00;;;9.32;;
13252;SDS011;6693;54.370;10.132;2023-08-20T04:59:27;22.65;;;10.60;;
13252;SDS011;6693;54.370;10.132;2023-08-20T05:00:28;19.92;;;9.77;;
13252;SDS011;6693;54.370;10.132;2023-08-20T05:01:31;26.02;;;11.32;;
13252;SDS011;6693;54.370;10.132;2023-08-20T05:02:32;25.98;;;9.95;;
13252;SDS011;6693;54.370;10.132;2023-08-20T05:03:35;24.88;;;10.43;;
13252;SDS011;6693;54.370;10.132;2023-08-20T05:04:35;24.23;;;10.73;;
13252;SDS011;6693;54.370;10.132;2023-08-20T05:05:39;27.45;;;8.95;;
13252;SDS011;6693;54.370;10.132;2023-08-20T05:06:42;22.05;;;8.82;;
13252;SDS011;6693;54.370;10.132;2023-08-20T05:07:45;22.45;;;9.40;;
13252;SDS011;6693;54.370;10.132;2023-08-20T05:08:46;24.98;;;9.57;;
13252;SDS011;6693;54.370;10.132;2023-08-20T05:09:49;27.20;;;9.63;;
13252;SDS011;6693;54.370;10.132;2023-08-20T05:10:50;22.83;;;10.90;;
13252;SDS011;6693;54.370;10.132;2023-08-20T05:11:53;20.27;;;8.38;;
13252;SDS011;6693;54.370;10.132;2023-08-20T05:12:54;24.02;;;10.35;;
13252;SDS011;6693;54.370;10.132;2023-08-20T05:13:57;22.45;;;9.70;;
13252;SDS011;6693;54.370;10.132;2023-08-20T05:14:57;23.15;;;9.70;;
13252;SDS011;6693;54.370;10.132;2023-08-20T05:16:01;20.20;;;9.18;;
13252;SDS011;6693;54.370;10.132;2023-08-20T05:17:02;24.25;;;9.85;;
13252;SDS011;6693;54.370;10.132;2023-08-20T05:18:05;26.02;;;9.38;;
13252;SDS011;6693;54.370;10.132;2023-08-20T05:19:06;23.58;;;9.82;;
13252;SDS011;6693;54.370;10.132;2023-08-20T05:20:09;22.92;;;9.35;;
13252;SDS011;6693;54.370;10.132;2023-08-20T05:21:10;25.20;;;9.18;;
13252;SDS011;6693;54.370;10.132;2023-08-20T05:22:16;21.35;;;9.20;;
13252;SDS011;6693;54.370;10.132;2023-08-20T05:23:17;19.55;;;8.55;;
13252;SDS011;6693;54.370;10.132;2023-08-20T05:24:20;20.95;;;9.05;;
13252;SDS011;6693;54.370;10.132;2023-08-20T05:25:21;21.70;;;9.05;;
13252;SDS011;6693;54.370;10.132;2023-08-20T05:26:21;24.25;;;9.90;;
13252;SDS011;6693;54.370;10.132;2023-08-20T05:27:25;24.50;;;8.57;;
13252;SDS011;6693;54.370;10.132;2023-08-20T05:28:25;22.83;;;8.30;;
13252;SDS011;6693;54.370;10.132;2023-08-20T05:29:28;19.15;;;8.27;;
13252;SDS011;6693;54.370;10.132;2023-08-20T05:30:29;21.55;;;8.65;;
13252;SDS011;6693;54.370;10.132;2023-08-20T05:31:33;23.20;;;9.30;;
13252;SDS011;6693;54.370;10.132;2023-08-20T05:32:34;20.60;;;8.20;;
13252;SDS011;6693;54.370;10.132;2023-08-20T05:33:37;25.40;;;9.32;;
13252;SDS011;6693;54.370;10.132;2023-08-20T05:34:37;29.38;;;10.45;;
13252;SDS011;6693;54.370;10.132;2023-08-20T05:35:38;21.55;;;8.88;;
13252;SDS011;6693;54.370;10.132;2023-08-20T05:36:41;30.45;;;9.10;;
13252;SDS011;6693;54.370;10.132;2023-08-20T05:37:44;23.42;;;8.82;;
13252;SDS011;6693;54.370;10.132;2023-08-20T05:38:48;23.17;;;8.70;;
13252;SDS011;6693;54.370;10.132;2023-08-20T05:39:48;20.50;;;8.18;;
13252;SDS011;6693;54.370;10.132;2023-08-20T05:40:51;23.25;;;7.75;;
13252;SDS011;6693;54.370;10.132;2023-08-20T05:41:52;20.63;;;7.78;;
13252;SDS011;6693;54.370;10.132;2023-08-20T05:42:56;25.10;;;7.55;;
13252;SDS011;6693;54.370;10.132;2023-08-20T05:43:56;21.65;;;6.70;;
13252;SDS011;6693;54.370;10.132;2023-08-20T05:44:59;18.67;;;6.65;;
13252;SDS011;6693;54.370;10.132;2023-08-20T05:46:00;21.13;;;7.15;;
13252;SDS011;6693;54.370;10.132;2023-08-20T05:47:03;24.13;;;6.85;;
13252;SDS011;6693;54.370;10.132;2023-08-20T05:48:05;20.90;;;7.75;;
13252;SDS011;6693;54.370;10.132;2023-08-20T05:49:09;22.60;;;8.63;;
13252;SDS011;6693;54.370;10.132;2023-08-20T05:50:09;22.17;;;8.18;;
13252;SDS011;6693;54.370;10.132;2023-08-20T05:51:13;23.42;;;8.13;;
13252;SDS011;6693;54.370;10.132;2023-08-20T05:52:13;22.52;;;8.10;;
13252;SDS011;6693;54.370;10.132;2023-08-20T05:53:19;22.38;;;7.63;;
13252;SDS011;6693;54.370;10.132;2023-08-20T05:54:20;25.85;;;6.88;;
13252;SDS011;6693;54.370;10.132;2023-08-20T05:55:23;23.95;;;8.35;;
13252;SDS011;6693;54.370;10.132;2023-08-20T05:56:24;21.95;;;8.05;;
13252;SDS011;6693;54.370;10.132;2023-08-20T05:57:27;21.42;;;7.78;;
13252;SDS011;6693;54.370;10.132;2023-08-20T05:58:28;20.27;;;8.65;;
13252;SDS011;6693;54.370;10.132;2023-08-20T05:59:31;24.15;;;8.60;;
13252;SDS011;6693;54.370;10.132;2023-08-20T06:00:32;22.60;;;7.40;;
13252;SDS011;6693;54.370;10.132;2023-08-20T06:01:35;20.85;;;7.72;;
13252;SDS011;6693;54.370;10.132;2023-08-20T06:02:36;22.75;;;8.93;;
13252;SDS011;6693;54.370;10.132;2023-08-20T06:03:39;21.15;;;8.13;;
13252;SDS011;6693;54.370;10.132;2023-08-20T06:04:40;21.58;;;7.90;;
13252;SDS011;6693;54.370;10.132;2023-08-20T06:05:43;21.65;;;8.20;;
13252;SDS011;6693;54.370;10.132;2023-08-20T06:06:43;23.70;;;8.20;;
13252;SDS011;6693;54.370;10.132;2023-08-20T06:07:47;22.45;;;6.70;;
13252;SDS011;6693;54.370;10.132;2023-08-20T06:08:50;22.52;;;7.30;;
13252;SDS011;6693;54.370;10.132;2023-08-20T06:09:53;20.17;;;7.60;;